sensor_id;sensor_type;location;lat;lon;timestamp;pressure;altitude;pressure_sealevel;temperature;humidity
37486;BME280;23341;50.296;18.960;2024-03-02T00:01:49;48161.63;;;-144.43;100.00
37486;BME280;23341;50.296;18.960;2024-03-02T00:04:18;48157.63;;;-144.43;100.00
37486;BME280;23341;50.296;18.960;2024-03-02T00:06:45;48155.63;;;-144.43;100.00
37486;BME280;23341;50.296;18.960;2024-03-02T00:09:15;48147.63;;;-144.43;100.00
37486;BME280;23341;50.296;18.960;2024-03-02T00:11:42;48125.66;;;-144.43;100.00
37486;BME280;23341;50.296;18.960;2024-03-02T00:14:10;48147.63;;;-144.43;100.00
37486;BME280;23341;50.296;18.960;2024-03-02T00:16:37;48175.63;;;-144.43;100.00
37486;BME280;23341;50.296;18.960;2024-03-02T00:19:06;48147.63;;;-144.43;100.00
37486;BME280;23341;50.296;18.960;2024-03-02T00:21:35;48147.63;;;-144.43;100.00
37486;BME280;23341;50.296;18.960;2024-03-02T00:24:08;48155.63;;;-144.43;100.00
37486;BME280;23341;50.296;18.960;2024-03-02T00:26:44;48151.63;;;-144.43;100.00
37486;BME280;23341;50.296;18.960;2024-03-02T00:29:15;48145.66;;;-144.43;100.00
37486;BME280;23341;50.296;18.960;2024-03-02T00:31:45;48165.63;;;-144.43;100.00
37486;BME280;23341;50.296;18.960;2024-03-02T00:34:14;48139.66;;;-144.43;100.00
37486;BME280;23341;50.296;18.960;2024-03-02T00:36:44;48153.63;;;-144.43;100.00
37486;BME280;23341;50.296;18.960;2024-03-02T00:39:12;48151.63;;;-144.43;100.00
37486;BME280;23341;50.296;18.960;2024-03-02T00:41:42;48157.63;;;-144.43;100.00
37486;BME280;23341;50.296;18.960;2024-03-02T00:44:12;48127.66;;;-144.43;100.00
37486;BME280;23341;50.296;18.960;2024-03-02T00:46:41;48155.63;;;-144.43;100.00
37486;BME280;23341;50.296;18.960;2024-03-02T00:49:11;48155.63;;;-144.43;100.00
37486;BME280;23341;50.296;18.960;2024-03-02T00:51:39;48139.66;;;-144.43;100.00
37486;BME280;23341;50.296;18.960;2024-03-02T00:54:09;48115.66;;;-144.43;100.00
37486;BME280;23341;50.296;18.960;2024-03-02T00:56:37;48147.63;;;-144.43;100.00
37486;BME280;23341;50.296;18.960;2024-03-02T00:59:06;48143.66;;;-144.43;100.00
37486;BME280;23341;50.296;18.960;2024-03-02T01:01:34;48143.66;;;-144.43;100.00
37486;BME280;23341;50.296;18.960;2024-03-02T01:04:02;48107.69;;;-144.43;100.00
37486;BME280;23341;50.296;18.960;2024-03-02T01:06:30;48153.63;;;-144.43;100.00
37486;BME280;23341;50.296;18.960;2024-03-02T01:08:58;48171.63;;;-144.43;100.00
37486;BME280;23341;50.296;18.960;2024-03-02T01:11:26;48133.66;;;-144.43;100.00
37486;BME280;23341;50.296;18.960;2024-03-02T01:13:54;48161.63;;;-144.43;100.00
37486;BME280;23341;50.296;18.960;2024-03-02T01:16:22;48137.66;;;-144.43;100.00
37486;BME280;23341;50.296;18.960;2024-03-02T01:18:49;48141.66;;;-144.43;100.00
37486;BME280;23341;50.296;18.960;2024-03-02T01:21:17;48163.63;;;-144.43;100.00
37486;BME280;23341;50.296;18.960;2024-03-02T01:23:45;48141.66;;;-144.43;100.00
37486;BME280;23341;50.296;18.960;2024-03-02T01:26:12;48137.66;;;-144.43;100.00
37486;BME280;23341;50.296;18.960;2024-03-02T01:28:41;48133.66;;;-144.43;100.00
37486;BME280;23341;50.296;18.960;2024-03-02T01:31:09;48149.63;;;-144.43;100.00
37486;BME280;23341;50.296;18.960;2024-03-02T01:33:37;48127.66;;;-144.43;100.00
37486;BME280;23341;50.296;18.960;2024-03-02T01:36:05;48127.66;;;-144.43;100.00
37486;BME280;23341;50.296;18.960;2024-03-02T01:38:33;48145.66;;;-144.43;100.00
37486;BME280;23341;50.296;18.960;2024-03-02T01:41:01;48177.63;;;-144.43;100.00
37486;BME280;23341;50.296;18.960;2024-03-02T01:43:29;48143.66;;;-144.43;100.00
37486;BME280;23341;50.296;18.960;2024-03-02T01:45:58;48151.63;;;-144.43;100.00
37486;BME280;23341;50.296;18.960;2024-03-02T01:48:25;48151.63;;;-144.43;100.00
37486;BME280;23341;50.296;18.960;2024-03-02T01:50:52;48137.66;;;-144.43;100.00
37486;BME280;23341;50.296;18.960;2024-03-02T01:53:20;48163.63;;;-144.43;100.00
37486;BME280;23341;50.296;18.960;2024-03-02T01:55:47;48159.63;;;-144.43;100.00
37486;BME280;23341;50.296;18.960;2024-03-02T01:58:15;48107.69;;;-144.43;100.00
37486;BME280;23341;50.296;18.960;2024-03-02T02:00:43;48135.66;;;-144.43;100.00
37486;BME280;23341;50.296;18.960;2024-03-02T02:03:12;48143.66;;;-144.43;100.00
37486;BME280;23341;50.296;18.960;2024-03-02T02:05:42;48129.66;;;-144.43;100.00
37486;BME280;23341;50.296;18.960;2024-03-02T02:08:09;48147.63;;;-144.43;100.00
37486;BME280;23341;50.296;18.960;2024-03-02T02:10:37;48141.66;;;-144.43;100.00
37486;BME280;23341;50.296;18.960;2024-03-02T02:13:04;48159.63;;;-144.43;100.00
37486;BME280;23341;50.296;18.960;2024-03-02T02:15:33;48161.63;;;-144.43;100.00
37486;BME280;23341;50.296;18.960;2024-03-02T02:18:02;48149.63;;;-144.43;100.00
37486;BME280;23341;50.296;18.960;2024-03-02T02:20:32;48155.63;;;-144.43;100.00
37486;BME280;23341;50.296;18.960;2024-03-02T02:23:02;48121.66;;;-144.43;100.00
37486;BME280;23341;50.296;18.960;2024-03-02T02:25:29;48171.63;;;-144.43;100.00
37486;BME280;23341;50.296;18.960;2024-03-02T02:27:57;48129.66;;;-144.43;100.00
37486;BME280;23341;50.296;18.960;2024-03-02T02:30:26;48155.63;;;-144.43;100.00
37486;BME280;23341;50.296;18.960;2024-03-02T02:32:55;48157.63;;;-144.43;100.00
37486;BME280;23341;50.296;18.960;2024-03-02T02:35:22;48165.63;;;-144.43;100.00
37486;BME280;23341;50.296;18.960;2024-03-02T02:37:50;48141.66;;;-144.43;100.00
37486;BME280;23341;50.296;18.960;2024-03-02T02:40:20;48147.63;;;-144.43;100.00
37486;BME280;23341;50.296;18.960;2024-03-02T02:42:48;48163.63;;;-144.43;100.00
37486;BME280;23341;50.296;18.960;2024-03-02T02:45:18;48131.66;;;-144.43;100.00
37486;BME280;23341;50.296;18.960;2024-03-02T02:47:45;48155.63;;;-144.43;100.00
37486;BME280;23341;50.296;18.960;2024-03-02T02:50:13;48143.66;;;-144.43;100.00
37486;BME280;23341;50.296;18.960;2024-03-02T02:52:41;48147.63;;;-144.43;100.00
37486;BME280;23341;50.296;18.960;2024-03-02T02:55:10;48143.66;;;-144.43;100.00
37486;BME280;23341;50.296;18.960;2024-03-02T02:57:40;48145.66;;;-144.43;100.00
37486;BME280;23341;50.296;18.960;2024-03-02T03:00:10;48151.63;;;-144.43;100.00
37486;BME280;23341;50.296;18.960;2024-03-02T03:02:40;48147.63;;;-144.43;100.00
37486;BME280;23341;50.296;18.960;2024-03-02T03:05:09;48171.63;;;-144.43;100.00
37486;BME280;23341;50.296;18.960;2024-03-02T03:07:38;48165.63;;;-144.43;100.00
37486;BME280;23341;50.296;18.960;2024-03-02T03:10:07;48161.63;;;-144.43;100.00
37486;BME280;23341;50.296;18.960;2024-03-02T03:12:35;48173.63;;;-144.43;100.00
37486;BME280;23341;50.296;18.960;2024-03-02T03:15:05;48155.63;;;-144.43;100.00
37486;BME280;23341;50.296;18.960;2024-03-02T03:17:33;48143.66;;;-144.43;100.00
37486;BME280;23341;50.296;18.960;2024-03-02T03:20:00;48139.66;;;-144.43;100.00
37486;BME280;23341;50.296;18.960;2024-03-02T03:22:30;48143.66;;;-144.43;100.00
37486;BME280;23341;50.296;18.960;2024-03-02T03:24:57;48159.63;;;-144.43;100.00
37486;BME280;23341;50.296;18.960;2024-03-02T03:27:25;48153.63;;;-144.43;100.00
37486;BME280;23341;50.296;18.960;2024-03-02T03:29:53;48145.66;;;-144.43;100.00
37486;BME280;23341;50.296;18.960;2024-03-02T03:32:22;48155.63;;;-144.43;100.00
37486;BME280;23341;50.296;18.960;2024-03-02T03:34:50;48151.63;;;-144.43;100.00
37486;BME280;23341;50.296;18.960;2024-03-02T03:37:18;48165.63;;;-144.43;100.00
37486;BME280;23341;50.296;18.960;2024-03-02T03:39:45;48167.63;;;-144.43;100.00
37486;BME280;23341;50.296;18.960;2024-03-02T03:42:13;48161.63;;;-144.43;100.00
37486;BME280;23341;50.296;18.960;2024-03-02T03:44:40;48143.66;;;-144.43;100.00
37486;BME280;23341;50.296;18.960;2024-03-02T03:47:08;48163.63;;;-144.43;100.00
37486;BME280;23341;50.296;18.960;2024-03-02T03:49:36;48161.63;;;-144.43;100.00
37486;BME280;23341;50.296;18.960;2024-03-02T03:52:04;48139.66;;;-144.43;100.00
37486;BME280;23341;50.296;18.960;2024-03-02T03:54:32;48159.63;;;-144.43;100.00
37486;BME280;23341;50.296;18.960;2024-03-02T03:56:59;48163.63;;;-144.43;100.00
37486;BME280;23341;50.296;18.960;2024-03-02T03:59:27;48163.63;;;-144.43;100.00
37486;BME280;23341;50.296;18.960;2024-03-02T04:01:54;48141.66;;;-144.43;100.00
37486;BME280;23341;50.296;18.960;2024-03-02T04:04:22;48157.63;;;-144.43;100.00
37486;BME280;23341;50.296;18.960;2024-03-02T04:06:51;48125.66;;;-144.43;100.00
37486;BME280;23341;50.296;18.960;2024-03-02T04:09:18;48125.66;;;-144.43;100.00
37486;BME280;23341;50.296;18.960;2024-03-02T04:11:46;48145.66;;;-144.43;100.00
37486;BME280;23341;50.296;18.960;2024-03-02T04:14:13;48143.66;;;-144.43;100.00
37486;BME280;23341;50.296;18.960;2024-03-02T04:16:41;48127.66;;;-144.43;100.00
37486;BME280;23341;50.296;18.960;2024-03-02T04:19:08;48159.63;;;-144.43;100.00
37486;BME280;23341;50.296;18.960;2024-03-02T04:21:36;48151.63;;;-144.43;100.00
37486;BME280;23341;50.296;18.960;2024-03-02T04:24:05;48171.63;;;-144.43;100.00
37486;BME280;23341;50.296;18.960;2024-03-02T04:26:32;48155.63;;;-144.43;100.00
37486;BME280;23341;50.296;18.960;2024-03-02T04:29:00;48147.63;;;-144.43;100.00
37486;BME280;23341;50.296;18.960;2024-03-02T04:31:28;48149.63;;;-144.43;100.00
37486;BME280;23341;50.296;18.960;2024-03-02T04:33:55;48147.63;;;-144.43;100.00
37486;BME280;23341;50.296;18.960;2024-03-02T04:36:23;48143.66;;;-144.43;100.00
37486;BME280;23341;50.296;18.960;2024-03-02T04:38:50;48139.66;;;-144.43;100.00
37486;BME280;23341;50.296;18.960;2024-03-02T04:41:19;48129.66;;;-144.43;100.00
37486;BME280;23341;50.296;18.960;2024-03-02T04:43:46;48149.63;;;-144.43;100.00
37486;BME280;23341;50.296;18.960;2024-03-02T04:46:14;48163.63;;;-144.43;100.00
37486;BME280;23341;50.296;18.960;2024-03-02T04:48:41;48139.66;;;-144.43;100.00
37486;BME280;23341;50.296;18.960;2024-03-02T04:51:10;48147.63;;;-144.43;100.00
37486;BME280;23341;50.296;18.960;2024-03-02T04:53:37;48159.63;;;-144.43;100.00
37486;BME280;23341;50.296;18.960;2024-03-02T04:56:05;48139.66;;;-144.43;100.00
37486;BME280;23341;50.296;18.960;2024-03-02T04:59:06;48139.66;;;-144.43;100.00
37486;BME280;23341;50.296;18.960;2024-03-02T05:01:34;48161.63;;;-144.43;100.00
37486;BME280;23341;50.296;18.960;2024-03-02T05:04:01;48139.66;;;-144.43;100.00
37486;BME280;23341;50.296;18.960;2024-03-02T05:06:29;48149.63;;;-144.43;100.00
37486;BME280;23341;50.296;18.960;2024-03-02T05:08:56;48127.66;;;-144.43;100.00
37486;BME280;23341;50.296;18.960;2024-03-02T05:11:24;48147.63;;;-144.43;100.00
37486;BME280;23341;50.296;18.960;2024-03-02T05:14:12;48163.63;;;-144.43;100.00
37486;BME280;23341;50.296;18.960;2024-03-02T05:16:40;48151.63;;;-144.43;100.00
37486;BME280;23341;50.296;18.960;2024-03-02T05:19:08;48147.63;;;-144.43;100.00
37486;BME280;23341;50.296;18.960;2024-03-02T05:21:35;48161.63;;;-144.43;100.00
37486;BME280;23341;50.296;18.960;2024-03-02T05:24:03;48161.63;;;-144.43;100.00
37486;BME280;23341;50.296;18.960;2024-03-02T05:26:31;48161.63;;;-144.43;100.00
37486;BME280;23341;50.296;18.960;2024-03-02T05:28:58;48137.66;;;-144.43;100.00
37486;BME280;23341;50.296;18.960;2024-03-02T05:31:27;48139.66;;;-144.43;100.00
37486;BME280;23341;50.296;18.960;2024-03-02T05:33:54;48153.63;;;-144.43;100.00
37486;BME280;23341;50.296;18.960;2024-03-02T05:36:22;48131.66;;;-144.43;100.00
37486;BME280;23341;50.296;18.960;2024-03-02T05:38:49;48141.66;;;-144.43;100.00
37486;BME280;23341;50.296;18.960;2024-03-02T05:41:17;48159.63;;;-144.43;100.00
37486;BME280;23341;50.296;18.960;2024-03-02T05:43:44;48113.69;;;-144.43;100.00
37486;BME280;23341;50.296;18.960;2024-03-02T05:46:12;48165.63;;;-144.43;100.00
37486;BME280;23341;50.296;18.960;2024-03-02T05:48:41;48159.63;;;-144.43;100.00
37486;BME280;23341;50.296;18.960;2024-03-02T05:51:08;48141.66;;;-144.43;100.00
37486;BME280;23341;50.296;18.960;2024-03-02T05:53:36;48151.63;;;-144.43;100.00
37486;BME280;23341;50.296;18.960;2024-03-02T05:56:05;48147.63;;;-144.43;100.00
37486;BME280;23341;50.296;18.960;2024-03-02T05:58:32;48163.63;;;-144.43;100.00
37486;BME280;23341;50.296;18.960;2024-03-02T06:01:12;48143.66;;;-144.43;100.00
37486;BME280;23341;50.296;18.960;2024-03-02T06:03:41;48151.63;;;-144.43;100.00
37486;BME280;23341;50.296;18.960;2024-03-02T06:06:08;48139.66;;;-144.43;100.00
37486;BME280;23341;50.296;18.960;2024-03-02T06:08:36;48145.66;;;-144.43;100.00
37486;BME280;23341;50.296;18.960;2024-03-02T06:11:04;48153.63;;;-144.43;100.00
37486;BME280;23341;50.296;18.960;2024-03-02T06:13:31;48157.63;;;-144.43;100.00
37486;BME280;23341;50.296;18.960;2024-03-02T06:15:58;48153.63;;;-144.43;100.00
37486;BME280;23341;50.296;18.960;2024-03-02T06:18:26;48133.66;;;-144.43;100.00
37486;BME280;23341;50.296;18.960;2024-03-02T06:20:55;48183.59;;;-144.43;100.00
37486;BME280;23341;50.296;18.960;2024-03-02T06:23:22;48163.63;;;-144.43;100.00
37486;BME280;23341;50.296;18.960;2024-03-02T06:25:51;48145.66;;;-144.43;100.00
37486;BME280;23341;50.296;18.960;2024-03-02T06:28:18;48157.63;;;-144.43;100.00
37486;BME280;23341;50.296;18.960;2024-03-02T06:30:46;48145.66;;;-144.43;100.00
37486;BME280;23341;50.296;18.960;2024-03-02T06:33:13;48155.63;;;-144.43;100.00
37486;BME280;23341;50.296;18.960;2024-03-02T06:35:41;48147.63;;;-144.43;100.00
37486;BME280;23341;50.296;18.960;2024-03-02T06:38:10;48159.63;;;-144.43;100.00
37486;BME280;23341;50.296;18.960;2024-03-02T06:40:37;48171.63;;;-144.43;100.00
37486;BME280;23341;50.296;18.960;2024-03-02T06:43:05;48171.63;;;-144.43;100.00
37486;BME280;23341;50.296;18.960;2024-03-02T06:45:33;48139.66;;;-144.43;100.00
37486;BME280;23341;50.296;18.960;2024-03-02T06:48:00;48143.66;;;-144.43;100.00
37486;BME280;23341;50.296;18.960;2024-03-02T06:50:28;48157.63;;;-144.43;100.00
37486;BME280;23341;50.296;18.960;2024-03-02T06:52:55;48151.63;;;-144.43;100.00
37486;BME280;23341;50.296;18.960;2024-03-02T06:55:25;48155.63;;;-144.43;100.00
37486;BME280;23341;50.296;18.960;2024-03-02T06:57:52;48139.66;;;-144.43;100.00
37486;BME280;23341;50.296;18.960;2024-03-02T07:00:20;48141.66;;;-144.43;100.00
37486;BME280;23341;50.296;18.960;2024-03-02T07:02:47;48157.63;;;-144.43;100.00
37486;BME280;23341;50.296;18.960;2024-03-02T07:05:15;48175.63;;;-144.43;100.00
37486;BME280;23341;50.296;18.960;2024-03-02T07:07:43;48153.63;;;-144.43;100.00
37486;BME280;23341;50.296;18.960;2024-03-02T07:10:10;48167.63;;;-144.43;100.00
37486;BME280;23341;50.296;18.960;2024-03-02T07:12:39;48187.59;;;-144.43;100.00
37486;BME280;23341;50.296;18.960;2024-03-02T07:15:08;48159.63;;;-144.43;100.00
37486;BME280;23341;50.296;18.960;2024-03-02T07:17:50;48159.63;;;-144.43;100.00
37486;BME280;23341;50.296;18.960;2024-03-02T07:20:18;48177.63;;;-144.43;100.00
37486;BME280;23341;50.296;18.960;2024-03-02T07:22:45;48167.63;;;-144.43;100.00
37486;BME280;23341;50.296;18.960;2024-03-02T07:25:13;48163.63;;;-144.43;100.00
37486;BME280;23341;50.296;18.960;2024-03-02T07:27:42;48171.63;;;-144.43;100.00
37486;BME280;23341;50.296;18.960;2024-03-02T07:30:13;48149.63;;;-144.43;100.00
37486;BME280;23341;50.296;18.960;2024-03-02T07:32:42;48185.59;;;-144.43;100.00
37486;BME280;23341;50.296;18.960;2024-03-02T07:35:11;48179.59;;;-144.43;100.00
37486;BME280;23341;50.296;18.960;2024-03-02T07:37:39;48171.63;;;-144.43;100.00
37486;BME280;23341;50.296;18.960;2024-03-02T07:40:09;48189.59;;;-144.43;100.00
37486;BME280;23341;50.296;18.960;2024-03-02T07:42:37;48163.63;;;-144.43;100.00
37486;BME280;23341;50.296;18.960;2024-03-02T07:45:08;48171.63;;;-144.43;100.00
37486;BME280;23341;50.296;18.960;2024-03-02T07:47:35;48175.63;;;-144.43;100.00
37486;BME280;23341;50.296;18.960;2024-03-02T07:50:04;48163.63;;;-144.43;100.00
37486;BME280;23341;50.296;18.960;2024-03-02T07:52:32;48183.59;;;-144.43;100.00
37486;BME280;23341;50.296;18.960;2024-03-02T07:55:00;48183.59;;;-144.43;100.00
37486;BME280;23341;50.296;18.960;2024-03-02T07:57:27;48181.59;;;-144.43;100.00
37486;BME280;23341;50.296;18.960;2024-03-02T07:59:55;48189.59;;;-144.43;100.00
37486;BME280;23341;50.296;18.960;2024-03-02T08:02:24;48169.63;;;-144.43;100.00
37486;BME280;23341;50.296;18.960;2024-03-02T08:04:52;48175.63;;;-144.43;100.00
37486;BME280;23341;50.296;18.960;2024-03-02T08:07:19;48183.59;;;-144.43;100.00
37486;BME280;23341;50.296;18.960;2024-03-02T08:09:47;48203.59;;;-144.43;100.00
37486;BME280;23341;50.296;18.960;2024-03-02T08:12:14;48193.59;;;-144.43;100.00
37486;BME280;23341;50.296;18.960;2024-03-02T08:14:42;48203.59;;;-144.43;100.00
37486;BME280;23341;50.296;18.960;2024-03-02T08:17:09;48243.53;;;-144.43;100.00
37486;BME280;23341;50.296;18.960;2024-03-02T08:19:39;48205.59;;;-144.43;100.00
37486;BME280;23341;50.296;18.960;2024-03-02T08:22:06;48183.59;;;-144.43;100.00
37486;BME280;23341;50.296;18.960;2024-03-02T08:24:34;48193.59;;;-144.43;100.00
37486;BME280;23341;50.296;18.960;2024-03-02T08:27:01;48187.59;;;-144.43;100.00
37486;BME280;23341;50.296;18.960;2024-03-02T08:29:29;48189.59;;;-144.43;100.00
37486;BME280;23341;50.296;18.960;2024-03-02T08:31:57;48197.59;;;-144.43;100.00
37486;BME280;23341;50.296;18.960;2024-03-02T08:34:24;48195.59;;;-144.43;100.00
37486;BME280;23341;50.296;18.960;2024-03-02T08:36:53;48187.59;;;-144.43;100.00
37486;BME280;23341;50.296;18.960;2024-03-02T08:39:21;48197.59;;;-144.43;100.00
37486;BME280;23341;50.296;18.960;2024-03-02T08:41:48;48187.59;;;-144.43;100.00
37486;BME280;23341;50.296;18.960;2024-03-02T08:44:16;48203.59;;;-144.43;100.00
37486;BME280;23341;50.296;18.960;2024-03-02T08:46:44;48221.56;;;-144.43;100.00
37486;BME280;23341;50.296;18.960;2024-03-02T08:49:12;48201.59;;;-144.43;100.00
37486;BME280;23341;50.296;18.960;2024-03-02T08:51:39;48205.59;;;-144.43;100.00
37486;BME280;23341;50.296;18.960;2024-03-02T08:54:09;48219.56;;;-144.43;100.00
37486;BME280;23341;50.296;18.960;2024-03-02T08:56:36;48171.63;;;-144.43;100.00
37486;BME280;23341;50.296;18.960;2024-03-02T08:59:03;48209.59;;;-144.43;100.00
37486;BME280;23341;50.296;18.960;2024-03-02T09:01:31;48203.59;;;-144.43;100.00
37486;BME280;23341;50.296;18.960;2024-03-02T09:03:58;48189.59;;;-144.43;100.00
37486;BME280;23341;50.296;18.960;2024-03-02T09:06:26;48213.56;;;-144.43;100.00
37486;BME280;23341;50.296;18.960;2024-03-02T09:08:53;48219.56;;;-144.43;100.00
37486;BME280;23341;50.296;18.960;2024-03-02T09:11:22;48231.56;;;-144.43;100.00
37486;BME280;23341;50.296;18.960;2024-03-02T09:13:51;48169.63;;;-144.43;100.00
37486;BME280;23341;50.296;18.960;2024-03-02T09:16:18;48175.63;;;-144.43;100.00
37486;BME280;23341;50.296;18.960;2024-03-02T09:18:46;48217.56;;;-144.43;100.00
37486;BME280;23341;50.296;18.960;2024-03-02T09:21:13;48217.56;;;-144.43;100.00
37486;BME280;23341;50.296;18.960;2024-03-02T09:23:41;48185.59;;;-144.43;100.00
37486;BME280;23341;50.296;18.960;2024-03-02T09:26:10;48207.59;;;-144.43;100.00
37486;BME280;23341;50.296;18.960;2024-03-02T09:28:42;48215.56;;;-144.43;100.00
37486;BME280;23341;50.296;18.960;2024-03-02T09:31:09;48207.59;;;-144.43;100.00
37486;BME280;23341;50.296;18.960;2024-03-02T09:33:38;48199.59;;;-144.43;100.00
37486;BME280;23341;50.296;18.960;2024-03-02T09:36:10;48181.59;;;-144.43;100.00
37486;BME280;23341;50.296;18.960;2024-03-02T09:38:43;48199.59;;;-144.43;100.00
37486;BME280;23341;50.296;18.960;2024-03-02T09:41:11;48199.59;;;-144.43;100.00
37486;BME280;23341;50.296;18.960;2024-03-02T09:43:40;48217.56;;;-144.43;100.00
37486;BME280;23341;50.296;18.960;2024-03-02T09:46:09;48197.59;;;-144.43;100.00
37486;BME280;23341;50.296;18.960;2024-03-02T09:48:37;48189.59;;;-144.43;100.00
37486;BME280;23341;50.296;18.960;2024-03-02T09:51:05;48191.59;;;-144.43;100.00
37486;BME280;23341;50.296;18.960;2024-03-02T09:53:34;48211.56;;;-144.43;100.00
37486;BME280;23341;50.296;18.960;2024-03-02T09:56:01;48175.63;;;-144.43;100.00
37486;BME280;23341;50.296;18.960;2024-03-02T09:58:29;48201.59;;;-144.43;100.00
37486;BME280;23341;50.296;18.960;2024-03-02T10:00:58;48219.56;;;-144.43;100.00
37486;BME280;23341;50.296;18.960;2024-03-02T10:03:26;48193.59;;;-144.43;100.00
37486;BME280;23341;50.296;18.960;2024-03-02T10:06:19;48201.59;;;-144.43;100.00
37486;BME280;23341;50.296;18.960;2024-03-02T10:08:47;48201.59;;;-144.43;100.00
37486;BME280;23341;50.296;18.960;2024-03-02T10:11:35;48195.59;;;-144.43;100.00
37486;BME280;23341;50.296;18.960;2024-03-02T10:14:06;48247.53;;;-144.43;100.00
37486;BME280;23341;50.296;18.960;2024-03-02T10:16:36;48203.59;;;-144.43;100.00
37486;BME280;23341;50.296;18.960;2024-03-02T10:19:14;48199.59;;;-144.43;100.00
37486;BME280;23341;50.296;18.960;2024-03-02T10:21:42;48195.59;;;-144.43;100.00
37486;BME280;23341;50.296;18.960;2024-03-02T10:24:10;48201.59;;;-144.43;100.00
37486;BME280;23341;50.296;18.960;2024-03-02T10:26:38;48179.59;;;-144.43;100.00
37486;BME280;23341;50.296;18.960;2024-03-02T10:29:07;48201.59;;;-144.43;100.00
37486;BME280;23341;50.296;18.960;2024-03-02T10:31:38;48197.59;;;-144.43;100.00
37486;BME280;23341;50.296;18.960;2024-03-02T10:34:06;48205.59;;;-144.43;100.00
37486;BME280;23341;50.296;18.960;2024-03-02T10:36:33;48199.59;;;-144.43;100.00
37486;BME280;23341;50.296;18.960;2024-03-02T10:39:03;48185.59;;;-144.43;100.00
37486;BME280;23341;50.296;18.960;2024-03-02T10:41:33;48205.59;;;-144.43;100.00
37486;BME280;23341;50.296;18.960;2024-03-02T10:44:02;48199.59;;;-144.43;100.00
37486;BME280;23341;50.296;18.960;2024-03-02T10:46:32;48187.59;;;-144.43;100.00
37486;BME280;23341;50.296;18.960;2024-03-02T10:49:02;48163.63;;;-144.43;100.00
37486;BME280;23341;50.296;18.960;2024-03-02T10:51:29;48201.59;;;-144.43;100.00
37486;BME280;23341;50.296;18.960;2024-03-02T10:53:58;48163.63;;;-144.43;100.00
37486;BME280;23341;50.296;18.960;2024-03-02T10:56:29;48189.59;;;-144.43;100.00
37486;BME280;23341;50.296;18.960;2024-03-02T10:59:02;48201.59;;;-144.43;100.00
37486;BME280;23341;50.296;18.960;2024-03-02T11:01:32;48185.59;;;-144.43;100.00
37486;BME280;23341;50.296;18.960;2024-03-02T11:04:02;48227.56;;;-144.43;100.00
37486;BME280;23341;50.296;18.960;2024-03-02T11:06:32;48205.59;;;-144.43;100.00
37486;BME280;23341;50.296;18.960;2024-03-02T11:09:05;48187.59;;;-144.43;100.00
37486;BME280;23341;50.296;18.960;2024-03-02T11:11:37;48219.56;;;-144.43;100.00
37486;BME280;23341;50.296;18.960;2024-03-02T11:14:13;48175.63;;;-144.43;100.00
37486;BME280;23341;50.296;18.960;2024-03-02T11:16:40;48195.59;;;-144.43;100.00
37486;BME280;23341;50.296;18.960;2024-03-02T11:19:11;48211.56;;;-144.43;100.00
37486;BME280;23341;50.296;18.960;2024-03-02T11:21:40;48223.56;;;-144.43;100.00
37486;BME280;23341;50.296;18.960;2024-03-02T11:24:29;48179.59;;;-144.43;100.00
37486;BME280;23341;50.296;18.960;2024-03-02T11:26:59;48219.56;;;-144.43;100.00
37486;BME280;23341;50.296;18.960;2024-03-02T11:29:46;48195.59;;;-144.43;100.00
37486;BME280;23341;50.296;18.960;2024-03-02T11:32:16;48185.59;;;-144.43;100.00
37486;BME280;23341;50.296;18.960;2024-03-02T11:34:46;48171.63;;;-144.43;100.00
37486;BME280;23341;50.296;18.960;2024-03-02T11:37:16;48193.59;;;-144.43;100.00
37486;BME280;23341;50.296;18.960;2024-03-02T11:39:44;48223.56;;;-144.43;100.00
37486;BME280;23341;50.296;18.960;2024-03-02T11:42:13;48203.59;;;-144.43;100.00
37486;BME280;23341;50.296;18.960;2024-03-02T11:44:43;48207.59;;;-144.43;100.00
37486;BME280;23341;50.296;18.960;2024-03-02T11:47:13;48219.56;;;-144.43;100.00
37486;BME280;23341;50.296;18.960;2024-03-02T11:49:42;48207.59;;;-144.43;100.00
37486;BME280;23341;50.296;18.960;2024-03-02T11:52:13;48193.59;;;-144.43;100.00
37486;BME280;23341;50.296;18.960;2024-03-02T11:54:43;48187.59;;;-144.43;100.00
37486;BME280;23341;50.296;18.960;2024-03-02T11:57:15;48221.56;;;-144.43;100.00
37486;BME280;23341;50.296;18.960;2024-03-02T11:59:43;48223.56;;;-144.43;100.00
37486;BME280;23341;50.296;18.960;2024-03-02T12:02:15;48201.59;;;-144.43;100.00
37486;BME280;23341;50.296;18.960;2024-03-02T12:04:44;48195.59;;;-144.43;100.00
37486;BME280;23341;50.296;18.960;2024-03-02T12:07:18;48197.59;;;-144.43;100.00
37486;BME280;23341;50.296;18.960;2024-03-02T12:09:46;48221.56;;;-144.43;100.00
37486;BME280;23341;50.296;18.960;2024-03-02T12:12:14;48199.59;;;-144.43;100.00
37486;BME280;23341;50.296;18.960;2024-03-02T12:14:50;48239.56;;;-144.43;100.00
37486;BME280;23341;50.296;18.960;2024-03-02T12:17:19;48223.56;;;-144.43;100.00
37486;BME280;23341;50.296;18.960;2024-03-02T12:19:46;48251.53;;;-144.43;100.00
37486;BME280;23341;50.296;18.960;2024-03-02T12:22:15;48215.56;;;-144.43;100.00
37486;BME280;23341;50.296;18.960;2024-03-02T12:24:44;48215.56;;;-144.43;100.00
37486;BME280;23341;50.296;18.960;2024-03-02T12:27:12;48211.56;;;-144.43;100.00
37486;BME280;23341;50.296;18.960;2024-03-02T12:29:40;48257.53;;;-144.43;100.00